Time;durP1;ratioP1;P1;durP2;ratioP2;P2;SDS_P1;SDS_P2;PMS_P1;PMS_P2;Temp;Humidity;BMP_temperature;BMP_pressure;BME280_temperature;BME280_humidity;BME280_pressure;Samples;Min_cycle;Max_cycle;Signal;HPM_P1;HPM_P2
2023/03/11 00:02:15;;;;;;;1.58;1.17;;;;;;;;;;5113343;28;20031;-50
2023/03/11 00:04:41;;;;;;;3.22;1.17;;;;;;;;;;5113554;28;20098;-50
2023/03/11 00:07:08;;;;;;;2.50;1.73;;;;;;;;;;5113390;28;20474;-50
2023/03/11 00:09:33;;;;;;;4.03;2.10;;;;;;;;;;5113224;28;20369;-49
2023/03/11 00:11:59;;;;;;;4.03;2.03;;;;;;;;;;5113399;28;20042;-50
2023/03/11 00:14:24;;;;;;;2.63;1.77;;;;;;;;;;5113066;28;20030;-50
2023/03/11 00:16:49;;;;;;;4.78;2.72;;;;;;;;;;5113351;28;20028;-50
2023/03/11 00:19:15;;;;;;;3.17;2.03;;;;;;;;;;5111984;28;20511;-50
2023/03/11 00:21:41;;;;;;;3.13;2.38;;;;;;;;;;5112935;28;20105;-50
2023/03/11 00:24:06;;;;;;;4.28;1.85;;;;;;;;;;5113088;28;20016;-50
2023/03/11 00:26:32;;;;;;;3.45;1.98;;;;;;;;;;5113190;28;20386;-50
2023/03/11 00:28:57;;;;;;;7.15;2.53;;;;;;;;;;5112926;28;20423;-50
2023/03/11 00:31:25;;;;;;;2.25;1.77;;;;;;;;;;5112951;28;20031;-49
2023/03/11 00:33:51;;;;;;;5.00;2.35;;;;;;;;;;5111431;28;20019;-50
2023/03/11 00:36:36;;;;;;;3.03;2.17;;;;;;;;;;5112709;28;20089;-50
2023/03/11 00:39:06;;;;;;;7.07;1.95;;;;;;;;;;5110945;28;20494;-50
2023/03/11 00:41:32;;;;;;;4.18;2.25;;;;;;;;;;5111375;28;20042;-50
2023/03/11 00:43:57;;;;;;;3.85;2.15;;;;;;;;;;5111263;28;20463;-50
2023/03/11 00:46:22;;;;;;;8.02;1.83;;;;;;;;;;5111603;28;20016;-50
2023/03/11 00:48:49;;;;;;;6.15;3.25;;;;;;;;;;5112710;28;20527;-50
2023/03/11 00:51:14;;;;;;;4.20;1.95;;;;;;;;;;5112525;28;20011;-50
2023/03/11 00:53:40;;;;;;;3.72;2.05;;;;;;;;;;5111041;28;20032;-49
2023/03/11 00:56:07;;;;;;;3.45;2.10;;;;;;;;;;5111020;28;20081;-50
2023/03/11 00:58:34;;;;;;;9.43;2.42;;;;;;;;;;5111053;28;20047;-50
2023/03/11 01:01:00;;;;;;;10.40;2.42;;;;;;;;;;5110970;28;20023;-50
2023/03/11 01:03:26;;;;;;;3.67;1.95;;;;;;;;;;5111101;28;20035;-49
2023/03/11 01:05:51;;;;;;;4.57;2.70;;;;;;;;;;5112521;28;20012;-49
2023/03/11 01:08:16;;;;;;;2.85;2.40;;;;;;;;;;5110915;28;20040;-50
2023/03/11 01:10:42;;;;;;;4.57;2.70;;;;;;;;;;5111939;28;20015;-49
2023/03/11 01:13:07;;;;;;;4.15;1.92;;;;;;;;;;5111992;28;20032;-50
2023/03/11 01:15:34;;;;;;;4.65;2.10;;;;;;;;;;5111052;28;20031;-50
2023/03/11 01:17:59;;;;;;;3.90;2.38;;;;;;;;;;5110707;28;20119;-50
2023/03/11 01:20:25;;;;;;;2.65;2.03;;;;;;;;;;5112089;28;20428;-50
2023/03/11 01:22:50;;;;;;;4.72;2.85;;;;;;;;;;5111927;28;20031;-50
2023/03/11 01:25:17;;;;;;;6.78;2.58;;;;;;;;;;5110671;28;20020;-50
2023/03/11 01:27:43;;;;;;;4.20;2.45;;;;;;;;;;5111860;28;20020;-49
2023/03/11 01:30:11;;;;;;;3.35;2.05;;;;;;;;;;5110558;28;20639;-50
2023/03/11 01:32:37;;;;;;;6.53;3.22;;;;;;;;;;5110581;28;20466;-49
2023/03/11 01:35:02;;;;;;;5.82;3.13;;;;;;;;;;5111736;28;20038;-49
2023/03/11 01:37:27;;;;;;;8.35;3.10;;;;;;;;;;5112192;28;20027;-50
2023/03/11 01:39:53;;;;;;;8.75;2.85;;;;;;;;;;5111817;28;20062;-50
2023/03/11 01:42:18;;;;;;;11.68;2.65;;;;;;;;;;5111918;28;20024;-49
2023/03/11 01:44:43;;;;;;;7.82;2.28;;;;;;;;;;5110634;28;20013;-50
2023/03/11 01:47:11;;;;;;;7.90;3.10;;;;;;;;;;5110376;28;20027;-49
2023/03/11 01:49:40;;;;;;;3.03;1.88;;;;;;;;;;5110460;28;20051;-49
2023/03/11 01:52:08;;;;;;;7.07;2.65;;;;;;;;;;5112165;28;20031;-49
2023/03/11 01:54:41;;;;;;;4.20;2.35;;;;;;;;;;5110252;28;20393;-49
2023/03/11 01:57:10;;;;;;;4.13;2.25;;;;;;;;;;5110353;28;20035;-49
2023/03/11 01:59:37;;;;;;;3.08;2.40;;;;;;;;;;5110718;28;20028;-49
2023/03/11 02:02:15;;;;;;;3.42;2.20;;;;;;;;;;5110215;28;20043;-49
2023/03/11 02:04:41;;;;;;;3.67;2.65;;;;;;;;;;5110229;28;20024;-50
2023/03/11 02:07:08;;;;;;;4.70;2.88;;;;;;;;;;5111618;28;20364;-50
2023/03/11 02:09:34;;;;;;;4.90;2.40;;;;;;;;;;5110231;28;20039;-50
2023/03/11 02:11:59;;;;;;;5.50;2.70;;;;;;;;;;5110169;28;20016;-49
2023/03/11 02:14:26;;;;;;;7.68;3.00;;;;;;;;;;5110121;28;20509;-49
2023/03/11 02:16:52;;;;;;;4.30;2.22;;;;;;;;;;5110134;28;20027;-49
2023/03/11 02:19:25;;;;;;;4.70;2.67;;;;;;;;;;5111559;28;20045;-49
2023/03/11 02:21:51;;;;;;;6.32;2.65;;;;;;;;;;5110101;28;20059;-49
2023/03/11 02:24:26;;;;;;;4.25;2.78;;;;;;;;;;5112327;28;20028;-49
2023/03/11 02:26:54;;;;;;;6.57;2.63;;;;;;;;;;5113899;28;20032;-49
2023/03/11 02:29:20;;;;;;;4.70;2.80;;;;;;;;;;5115177;28;20048;-49
2023/03/11 02:31:47;;;;;;;6.40;3.75;;;;;;;;;;5113797;28;20059;-49
2023/03/11 02:34:29;;;;;;;3.75;2.65;;;;;;;;;;5115080;28;20059;-49
2023/03/11 02:36:54;;;;;;;4.70;2.92;;;;;;;;;;5113691;28;20028;-50
2023/03/11 02:39:30;;;;;;;4.47;2.92;;;;;;;;;;5113732;28;20454;-50
2023/03/11 02:41:57;;;;;;;4.25;3.10;;;;;;;;;;5113635;28;20084;-50
2023/03/11 02:44:22;;;;;;;8.88;2.45;;;;;;;;;;5113644;28;20019;-50
2023/03/11 02:46:48;;;;;;;4.63;2.22;;;;;;;;;;5113593;28;20042;-49
2023/03/11 02:49:14;;;;;;;6.53;2.92;;;;;;;;;;5113874;28;20020;-49
2023/03/11 02:51:39;;;;;;;5.22;2.42;;;;;;;;;;5113509;28;20039;-49
2023/03/11 02:54:05;;;;;;;8.23;3.00;;;;;;;;;;5113458;28;20064;-49
2023/03/11 02:56:32;;;;;;;4.45;2.17;;;;;;;;;;5114652;28;20498;-49
2023/03/11 02:58:58;;;;;;;7.65;2.40;;;;;;;;;;5113291;28;20019;-49
2023/03/11 03:01:23;;;;;;;6.85;2.53;;;;;;;;;;5113295;28;20554;-49
2023/03/11 03:03:49;;;;;;;5.45;2.95;;;;;;;;;;5113157;28;20478;-49
2023/03/11 03:06:14;;;;;;;3.88;2.13;;;;;;;;;;5113215;28;20023;-49
2023/03/11 03:08:40;;;;;;;9.63;3.03;;;;;;;;;;5113173;28;20068;-49
2023/03/11 03:11:06;;;;;;;6.90;2.97;;;;;;;;;;5113101;28;20027;-49
2023/03/11 03:13:31;;;;;;;3.88;2.38;;;;;;;;;;5113069;28;20026;-49
2023/03/11 03:15:57;;;;;;;4.68;2.60;;;;;;;;;;5114273;28;20048;-49
2023/03/11 03:18:22;;;;;;;8.63;2.75;;;;;;;;;;5114357;28;20018;-49
2023/03/11 03:20:49;;;;;;;7.47;2.33;;;;;;;;;;5112800;28;20028;-49
2023/03/11 03:23:15;;;;;;;6.07;2.65;;;;;;;;;;5112891;28;20457;-49
2023/03/11 03:25:42;;;;;;;7.20;4.28;;;;;;;;;;5112850;28;20070;-49
2023/03/11 03:28:08;;;;;;;7.60;2.83;;;;;;;;;;5112862;28;20116;-49
2023/03/11 03:30:37;;;;;;;5.95;2.63;;;;;;;;;;5112659;28;20043;-49
2023/03/11 03:33:02;;;;;;;4.30;2.38;;;;;;;;;;5114191;28;20036;-49
2023/03/11 03:35:29;;;;;;;7.55;2.78;;;;;;;;;;5112295;28;20035;-49
2023/03/11 03:38:02;;;;;;;4.30;2.63;;;;;;;;;;5112522;28;20102;-49
2023/03/11 03:40:27;;;;;;;5.88;3.05;;;;;;;;;;5112610;28;20131;-49
2023/03/11 03:42:55;;;;;;;8.27;3.20;;;;;;;;;;5112325;28;20019;-49
2023/03/11 03:45:21;;;;;;;4.93;2.88;;;;;;;;;;5112508;28;20023;-49
2023/03/11 03:47:49;;;;;;;5.28;2.75;;;;;;;;;;5112423;28;20012;-49
2023/03/11 03:50:16;;;;;;;4.25;1.90;;;;;;;;;;5112377;28;20040;-49
2023/03/11 03:52:44;;;;;;;3.67;2.00;;;;;;;;;;5112226;28;20027;-49
2023/03/11 03:55:10;;;;;;;4.93;2.22;;;;;;;;;;5112189;28;20393;-49
2023/03/11 03:57:36;;;;;;;5.05;2.25;;;;;;;;;;5095384;28;20023;-50
2023/03/11 04:00:03;;;;;;;3.50;2.80;;;;;;;;;;5112200;28;20240;-49
2023/03/11 04:02:38;;;;;;;5.03;2.60;;;;;;;;;;5113526;28;20023;-49
2023/03/11 04:05:05;;;;;;;5.95;2.60;;;;;;;;;;5112321;28;20057;-49
2023/03/11 04:07:32;;;;;;;5.70;3.03;;;;;;;;;;5111958;28;20026;-49
2023/03/11 04:09:58;;;;;;;4.90;2.15;;;;;;;;;;5111907;28;20054;-50
2023/03/11 04:12:23;;;;;;;8.25;3.63;;;;;;;;;;5111927;28;20015;-49
2023/03/11 04:14:49;;;;;;;9.57;2.45;;;;;;;;;;5111727;28;20040;-49
2023/03/11 04:17:16;;;;;;;9.48;3.63;;;;;;;;;;5113463;28;20446;-49
2023/03/11 04:19:42;;;;;;;9.95;3.63;;;;;;;;;;5113031;28;20128;-49
2023/03/11 04:22:09;;;;;;;7.00;3.47;;;;;;;;;;5113049;28;20050;-50
2023/03/11 04:24:35;;;;;;;17.33;4.53;;;;;;;;;;5111693;28;20027;-49
2023/03/11 04:27:00;;;;;;;6.45;3.97;;;;;;;;;;5112932;28;20026;-49
2023/03/11 04:29:26;;;;;;;4.78;3.55;;;;;;;;;;5111491;28;20076;-49
2023/03/11 04:31:52;;;;;;;4.63;3.60;;;;;;;;;;5111454;28;20439;-49
2023/03/11 04:34:18;;;;;;;12.55;3.47;;;;;;;;;;5112653;28;20016;-49
2023/03/11 04:36:43;;;;;;;15.60;4.68;;;;;;;;;;5112943;28;20373;-49
2023/03/11 04:39:11;;;;;;;8.50;4.15;;;;;;;;;;5111428;28;20035;-49
2023/03/11 04:41:40;;;;;;;9.85;4.95;;;;;;;;;;5111412;28;20024;-49
2023/03/11 04:44:08;;;;;;;6.90;3.92;;;;;;;;;;5111292;28;20032;-49
2023/03/11 04:46:33;;;;;;;8.93;3.92;;;;;;;;;;5110944;28;20031;-49
2023/03/11 04:49:01;;;;;;;11.57;5.88;;;;;;;;;;5111126;28;20032;-49
2023/03/11 04:51:26;;;;;;;11.13;5.53;;;;;;;;;;5111248;28;20027;-49
2023/03/11 04:53:52;;;;;;;8.73;4.88;;;;;;;;;;5111087;28;20076;-49
2023/03/11 04:56:17;;;;;;;10.13;5.10;;;;;;;;;;5111044;28;20035;-49
2023/03/11 04:58:43;;;;;;;6.03;4.53;;;;;;;;;;5111094;28;20035;-49
2023/03/11 05:01:09;;;;;;;14.75;6.53;;;;;;;;;;5111034;28;20020;-49
2023/03/11 05:03:34;;;;;;;15.27;6.18;;;;;;;;;;5111068;28;20311;-49
2023/03/11 05:06:00;;;;;;;10.85;6.40;;;;;;;;;;5110889;28;20020;-49
2023/03/11 05:08:25;;;;;;;14.43;6.10;;;;;;;;;;5110929;28;20054;-49
2023/03/11 05:10:51;;;;;;;10.50;4.93;;;;;;;;;;5111104;28;20092;-49
2023/03/11 05:13:18;;;;;;;10.30;4.93;;;;;;;;;;5110796;28;20059;-49
2023/03/11 05:15:44;;;;;;;9.75;4.47;;;;;;;;;;5112204;28;20494;-49
2023/03/11 05:18:10;;;;;;;8.27;3.92;;;;;;;;;;5112160;28;20027;-49
2023/03/11 05:20:37;;;;;;;7.95;4.53;;;;;;;;;;5110744;28;20066;-49
2023/03/11 05:23:03;;;;;;;10.68;6.18;;;;;;;;;;5110597;28;20158;-49
2023/03/11 05:25:31;;;;;;;8.93;3.75;;;;;;;;;;5110675;28;20427;-49
2023/03/11 05:27:57;;;;;;;8.85;4.20;;;;;;;;;;5111863;28;20023;-49
2023/03/11 05:30:22;;;;;;;9.07;4.25;;;;;;;;;;5111844;28;20126;-49
2023/03/11 05:32:48;;;;;;;8.20;4.72;;;;;;;;;;5110452;28;20036;-49
2023/03/11 05:35:13;;;;;;;7.05;3.90;;;;;;;;;;5111838;28;20051;-49
2023/03/11 05:37:39;;;;;;;7.80;4.75;;;;;;;;;;5110575;28;20027;-49
2023/03/11 05:40:06;;;;;;;9.93;3.75;;;;;;;;;;5110476;28;20078;-49
2023/03/11 05:42:34;;;;;;;10.40;4.68;;;;;;;;;;5110413;28;20565;-49
2023/03/11 05:45:00;;;;;;;11.23;4.13;;;;;;;;;;5110334;28;20122;-49
2023/03/11 05:47:27;;;;;;;12.10;3.95;;;;;;;;;;5110792;28;20122;-49
2023/03/11 05:49:53;;;;;;;4.25;3.22;;;;;;;;;;5110424;28;20012;-49
2023/03/11 05:52:20;;;;;;;5.65;3.78;;;;;;;;;;5110432;28;20493;-49
2023/03/11 05:54:50;;;;;;;6.65;4.30;;;;;;;;;;5110234;28;20051;-49
2023/03/11 05:57:17;;;;;;;8.73;3.78;;;;;;;;;;5110988;28;20032;-49
2023/03/11 05:59:44;;;;;;;6.15;3.78;;;;;;;;;;5115877;28;20008;-49
2023/03/11 06:02:09;;;;;;;10.38;3.83;;;;;;;;;;5114669;28;20027;-49
2023/03/11 06:04:35;;;;;;;8.65;3.90;;;;;;;;;;5115769;28;20020;-49
2023/03/11 06:07:01;;;;;;;7.60;4.38;;;;;;;;;;5114568;28;20035;-49
2023/03/11 06:09:30;;;;;;;8.77;3.83;;;;;;;;;;5114258;28;20076;-49
2023/03/11 06:11:56;;;;;;;8.90;4.25;;;;;;;;;;5114228;28;20153;-49
2023/03/11 06:14:27;;;;;;;11.25;4.00;;;;;;;;;;5113991;28;20015;-49
2023/03/11 06:16:53;;;;;;;7.07;4.18;;;;;;;;;;5114182;28;20053;-50
2023/03/11 06:19:19;;;;;;;7.95;4.70;;;;;;;;;;5114197;28;20098;-49
2023/03/11 06:21:47;;;;;;;11.45;4.80;;;;;;;;;;5114018;28;20038;-50
2023/03/11 06:24:14;;;;;;;6.85;3.83;;;;;;;;;;5114045;28;20016;-50
2023/03/11 06:26:42;;;;;;;7.45;4.53;;;;;;;;;;5114015;28;20431;-50
2023/03/11 06:29:11;;;;;;;8.93;4.82;;;;;;;;;;5113712;28;20070;-50
2023/03/11 06:31:38;;;;;;;8.65;3.38;;;;;;;;;;5114001;28;20040;-49
2023/03/11 06:34:07;;;;;;;9.13;3.75;;;;;;;;;;5113771;28;20470;-49
2023/03/11 06:36:34;;;;;;;16.88;5.03;;;;;;;;;;5113781;28;20043;-49
2023/03/11 06:38:59;;;;;;;9.70;5.88;;;;;;;;;;5113669;28;20027;-49
2023/03/11 06:41:26;;;;;;;7.07;4.18;;;;;;;;;;5113743;28;20039;-50
2023/03/11 06:43:52;;;;;;;11.55;4.10;;;;;;;;;;5113533;28;20458;-50
2023/03/11 06:46:19;;;;;;;7.57;4.30;;;;;;;;;;5096699;28;20035;-50
2023/03/11 06:48:45;;;;;;;10.52;6.10;;;;;;;;;;5096650;28;20083;-49
2023/03/11 06:51:12;;;;;;;8.27;4.82;;;;;;;;;;5113587;28;20428;-50
2023/03/11 06:53:38;;;;;;;7.38;4.03;;;;;;;;;;5113422;28;20068;-50
2023/03/11 06:56:04;;;;;;;11.90;4.80;;;;;;;;;;5113272;28;20496;-50
2023/03/11 06:58:35;;;;;;;8.90;5.88;;;;;;;;;;5113409;28;20020;-49
2023/03/11 07:01:02;;;;;;;7.65;5.70;;;;;;;;;;5113304;28;20123;-50
2023/03/11 07:03:28;;;;;;;10.70;4.93;;;;;;;;;;5113308;28;20028;-50
2023/03/11 07:05:54;;;;;;;10.48;6.15;;;;;;;;;;5113366;28;20385;-49
2023/03/11 07:08:20;;;;;;;7.07;4.82;;;;;;;;;;5113262;28;20016;-50
2023/03/11 07:10:47;;;;;;;8.30;4.70;;;;;;;;;;5112451;28;20074;-50
2023/03/11 07:13:12;;;;;;;8.48;5.47;;;;;;;;;;5113091;28;20027;-50
2023/03/11 07:15:38;;;;;;;11.52;5.70;;;;;;;;;;5113013;28;20035;-50
2023/03/11 07:18:03;;;;;;;10.88;5.18;;;;;;;;;;5112991;28;20020;-50
2023/03/11 07:20:29;;;;;;;9.20;4.97;;;;;;;;;;5112957;28;20032;-49
2023/03/11 07:22:55;;;;;;;12.57;6.05;;;;;;;;;;5114138;28;20015;-49
2023/03/11 07:25:20;;;;;;;9.40;5.47;;;;;;;;;;5112854;28;20058;-49
2023/03/11 07:27:46;;;;;;;10.10;5.32;;;;;;;;;;5114370;28;20057;-49
2023/03/11 07:30:12;;;;;;;10.55;5.38;;;;;;;;;;5113952;28;20070;-50
2023/03/11 07:32:37;;;;;;;9.10;5.07;;;;;;;;;;5114302;28;20157;-49
2023/03/11 07:35:03;;;;;;;5.70;4.35;;;;;;;;;;5113775;28;20131;-49
2023/03/11 07:37:28;;;;;;;13.25;5.72;;;;;;;;;;5113996;27;20016;-49
2023/03/11 07:39:53;;;;;;;9.90;5.25;;;;;;;;;;5113885;28;20070;-49
2023/03/11 07:42:19;;;;;;;13.10;5.75;;;;;;;;;;5114153;28;20047;-50
2023/03/11 07:44:45;;;;;;;9.15;4.38;;;;;;;;;;5112508;28;20076;-50
2023/03/11 07:47:11;;;;;;;9.15;6.20;;;;;;;;;;5113624;28;20012;-49
2023/03/11 07:49:37;;;;;;;7.93;4.68;;;;;;;;;;5112383;28;20069;-49
2023/03/11 07:52:03;;;;;;;6.03;4.72;;;;;;;;;;5113591;28;20016;-49
2023/03/11 07:54:28;;;;;;;11.40;5.32;;;;;;;;;;5113544;28;20024;-50
2023/03/11 07:56:54;;;;;;;12.57;5.82;;;;;;;;;;5113589;28;20023;-50
2023/03/11 07:59:20;;;;;;;9.43;5.82;;;;;;;;;;5113544;28;20024;-49
2023/03/11 08:01:46;;;;;;;8.70;5.78;;;;;;;;;;5113807;28;20382;-50
2023/03/11 08:04:12;;;;;;;8.23;4.28;;;;;;;;;;5113295;28;20023;-49
2023/03/11 08:06:37;;;;;;;10.40;5.07;;;;;;;;;;5113386;28;20053;-49
2023/03/11 08:09:05;;;;;;;7.15;4.63;;;;;;;;;;5113301;28;20492;-49
2023/03/11 08:11:31;;;;;;;14.50;4.90;;;;;;;;;;5113227;28;20450;-49
2023/03/11 08:13:56;;;;;;;14.60;6.18;;;;;;;;;;5113101;28;20031;-49
2023/03/11 08:16:22;;;;;;;10.98;5.05;;;;;;;;;;5113446;28;20038;-49
2023/03/11 08:18:49;;;;;;;10.73;5.60;;;;;;;;;;5113317;28;20386;-49
2023/03/11 08:21:16;;;;;;;9.90;5.78;;;;;;;;;;5112168;27;20389;-49
2023/03/11 08:23:42;;;;;;;13.77;8.40;;;;;;;;;;5112941;27;20027;-49
2023/03/11 08:26:09;;;;;;;16.40;6.57;;;;;;;;;;5112974;28;20043;-49
2023/03/11 08:28:35;;;;;;;9.43;6.22;;;;;;;;;;5113076;28;20031;-49
2023/03/11 08:31:00;;;;;;;7.03;5.30;;;;;;;;;;5112628;28;20047;-49
2023/03/11 08:33:26;;;;;;;15.77;5.35;;;;;;;;;;5112834;28;20114;-49
2023/03/11 08:35:52;;;;;;;10.45;5.30;;;;;;;;;;5112836;28;20071;-49
2023/03/11 08:38:17;;;;;;;11.43;5.20;;;;;;;;;;5113075;28;20031;-49
2023/03/11 08:40:43;;;;;;;11.45;5.80;;;;;;;;;;5112820;28;20667;-49
2023/03/11 08:43:12;;;;;;;9.40;4.55;;;;;;;;;;5112800;28;20371;-49
2023/03/11 08:45:38;;;;;;;11.10;4.53;;;;;;;;;;5112673;28;20019;-49
2023/03/11 08:48:04;;;;;;;12.38;6.72;;;;;;;;;;5112833;28;20027;-49
2023/03/11 08:50:29;;;;;;;9.57;5.47;;;;;;;;;;5112601;28;20106;-49
2023/03/11 08:52:55;;;;;;;8.75;4.57;;;;;;;;;;5112422;28;20042;-49
2023/03/11 08:55:26;;;;;;;12.80;5.63;;;;;;;;;;5112338;28;20034;-49
2023/03/11 08:57:51;;;;;;;11.05;6.13;;;;;;;;;;5112394;28;20099;-49
2023/03/11 09:00:17;;;;;;;12.88;6.70;;;;;;;;;;5112452;28;20103;-49
2023/03/11 09:02:42;;;;;;;10.90;5.38;;;;;;;;;;5112662;28;20027;-49
2023/03/11 09:05:08;;;;;;;9.35;5.15;;;;;;;;;;5112244;27;20046;-49
2023/03/11 09:07:34;;;;;;;9.95;5.88;;;;;;;;;;5112376;28;20043;-49
2023/03/11 09:09:59;;;;;;;11.57;6.22;;;;;;;;;;5112437;28;20024;-50
2023/03/11 09:12:24;;;;;;;8.50;5.22;;;;;;;;;;5112088;28;20031;-49
2023/03/11 09:14:50;;;;;;;10.05;5.15;;;;;;;;;;5112298;28;20020;-49
2023/03/11 09:17:16;;;;;;;10.32;6.38;;;;;;;;;;5112196;28;20394;-49
2023/03/11 09:19:41;;;;;;;10.48;4.82;;;;;;;;;;5112288;28;20045;-49
2023/03/11 09:22:07;;;;;;;10.20;5.43;;;;;;;;;;5093838;28;20034;-49
2023/03/11 09:24:33;;;;;;;9.73;4.30;;;;;;;;;;5112245;28;20043;-49
2023/03/11 09:26:59;;;;;;;10.77;6.10;;;;;;;;;;5111920;28;20063;-49
2023/03/11 09:29:24;;;;;;;7.40;4.70;;;;;;;;;;5112043;28;20077;-49
2023/03/11 09:31:50;;;;;;;11.73;5.38;;;;;;;;;;5111658;28;20413;-49
2023/03/11 09:34:16;;;;;;;6.85;4.72;;;;;;;;;;5111910;28;20016;-49
2023/03/11 09:36:42;;;;;;;11.90;5.03;;;;;;;;;;5111838;28;20122;-49
2023/03/11 09:39:07;;;;;;;7.78;4.63;;;;;;;;;;5111825;28;20015;-49
2023/03/11 09:41:48;;;;;;;6.85;3.72;;;;;;;;;;5111881;28;20498;-49
2023/03/11 09:44:17;;;;;;;5.18;3.65;;;;;;;;;;5111676;28;20039;-50
2023/03/11 09:46:52;;;;;;;7.25;4.68;;;;;;;;;;5111789;28;20020;-49
2023/03/11 09:49:26;;;;;;;5.57;4.00;;;;;;;;;;5110484;28;20067;-49
2023/03/11 09:51:58;;;;;;;7.78;3.78;;;;;;;;;;5111943;28;20115;-49
2023/03/11 09:54:24;;;;;;;6.00;3.42;;;;;;;;;;5111884;28;20027;-49
2023/03/11 09:56:50;;;;;;;4.90;2.88;;;;;;;;;;5111655;28;20020;-49
2023/03/11 09:59:24;;;;;;;8.02;2.40;;;;;;;;;;5110476;28;20031;-49
2023/03/11 10:01:50;;;;;;;10.73;3.45;;;;;;;;;;5110287;28;20486;-49
2023/03/11 10:04:22;;;;;;;3.17;2.88;;;;;;;;;;5111735;28;20038;-49
2023/03/11 10:06:48;;;;;;;4.55;2.75;;;;;;;;;;5111565;28;20064;-49
2023/03/11 10:09:13;;;;;;;2.97;2.58;;;;;;;;;;5111448;28;20019;-49
2023/03/11 10:11:58;;;;;;;4.00;3.00;;;;;;;;;;5111475;28;20016;-49
2023/03/11 10:14:36;;;;;;;5.55;3.33;;;;;;;;;;5111543;28;20063;-49
2023/03/11 10:17:11;;;;;;;3.00;2.35;;;;;;;;;;5111490;28;20102;-49
2023/03/11 10:19:42;;;;;;;4.53;2.00;;;;;;;;;;5111690;28;20023;-49
2023/03/11 10:22:37;;;;;;;2.30;1.92;;;;;;;;;;5111327;28;20547;-49
2023/03/11 10:25:09;;;;;;;2.65;1.23;;;;;;;;;;5097876;28;20036;-49
2023/03/11 10:27:42;;;;;;;3.17;1.83;;;;;;;;;;5111552;28;20047;-49
2023/03/11 10:30:07;;;;;;;;;;;;;;;;;;5111571;28;20087;-49
2023/03/11 10:32:38;;;;;;;3.85;0.98;;;;;;;;;;5111360;28;19978;-49
2023/03/11 10:35:16;;;;;;;2.25;1.88;;;;;;;;;;5111187;28;20440;-49
2023/03/11 10:37:50;;;;;;;1.85;1.70;;;;;;;;;;5111334;28;20134;-49
2023/03/11 10:40:15;;;;;;;2.88;2.00;;;;;;;;;;5111682;28;20035;-49
2023/03/11 10:42:43;;;;;;;7.88;4.10;;;;;;;;;;5111271;28;20019;-49
2023/03/11 10:45:12;;;;;;;2.97;2.05;;;;;;;;;;5111772;28;20035;-49
2023/03/11 10:47:39;;;;;;;3.90;2.17;;;;;;;;;;5115014;28;20024;-49
2023/03/11 10:50:05;;;;;;;7.38;3.67;;;;;;;;;;5114781;27;20046;-48
2023/03/11 10:52:30;;;;;;;7.43;3.97;;;;;;;;;;5115033;28;20031;-49
2023/03/11 10:55:00;;;;;;;4.15;3.05;;;;;;;;;;5114709;28;20024;-49
2023/03/11 10:57:35;;;;;;;5.65;3.03;;;;;;;;;;5114785;28;20034;-49
2023/03/11 11:00:16;;;;;;;3.40;2.83;;;;;;;;;;5114686;28;20023;-49
2023/03/11 11:03:03;;;;;;;7.70;2.83;;;;;;;;;;5114709;28;20027;-49
2023/03/11 11:05:29;;;;;;;7.40;3.53;;;;;;;;;;5114633;28;20028;-49
2023/03/11 11:08:05;;;;;;;4.18;1.75;;;;;;;;;;5114535;27;20538;-49
2023/03/11 11:10:33;;;;;;;1.70;1.40;;;;;;;;;;5114547;28;20481;-49
2023/03/11 11:12:59;;;;;;;2.92;1.90;;;;;;;;;;5114378;28;20076;-48
2023/03/11 11:15:27;;;;;;;2.75;2.17;;;;;;;;;;5114356;28;20046;-49
2023/03/11 11:17:54;;;;;;;10.48;2.83;;;;;;;;;;5114604;28;20095;-49
2023/03/11 11:20:21;;;;;;;2.38;1.90;;;;;;;;;;5114410;28;20110;-49
2023/03/11 11:22:49;;;;;;;5.00;1.58;;;;;;;;;;5095934;28;20421;-49
2023/03/11 11:25:29;;;;;;;1.83;1.58;;;;;;;;;;5114220;28;20492;-49
2023/03/11 11:28:01;;;;;;;1.98;1.35;;;;;;;;;;5114043;28;20032;-49
2023/03/11 11:30:28;;;;;;;2.25;1.48;;;;;;;;;;5114083;27;20039;-48
2023/03/11 11:32:54;;;;;;;1.45;0.73;;;;;;;;;;5114235;27;20038;-49
2023/03/11 11:35:21;;;;;;;2.53;1.80;;;;;;;;;;5114001;28;20039;-49
2023/03/11 11:37:54;;;;;;;2.40;1.33;;;;;;;;;;5114229;28;20024;-49
2023/03/11 11:40:19;;;;;;;;;;;;;;;;;;5114466;28;20039;-49
2023/03/11 11:42:50;;;;;;;1.95;1.80;;;;;;;;;;5113832;28;19952;-49
2023/03/11 11:45:33;;;;;;;3.55;2.70;;;;;;;;;;5114100;28;20028;-48
2023/03/11 11:48:02;;;;;;;1.53;1.20;;;;;;;;;;5113732;28;20082;-49
2023/03/11 11:50:50;;;;;;;1.50;1.02;;;;;;;;;;5113983;28;20264;-49
2023/03/11 11:53:24;;;;;;;3.47;1.70;;;;;;;;;;5113799;28;20118;-49
2023/03/11 11:55:51;;;;;;;1.40;1.30;;;;;;;;;;5113352;27;20032;-49
2023/03/11 11:58:17;;;;;;;2.63;1.38;;;;;;;;;;5113556;28;20023;-49
2023/03/11 12:01:02;;;;;;;7.15;1.70;;;;;;;;;;5113562;28;20036;-49
2023/03/11 12:03:34;;;;;;;1.90;0.93;;;;;;;;;;5113720;28;20032;-49
2023/03/11 12:06:10;;;;;;;2.10;1.05;;;;;;;;;;5113384;28;20040;-49
2023/03/11 12:08:45;;;;;;;0.70;0.70;;;;;;;;;;5113487;27;20028;-49
2023/03/11 12:11:19;;;;;;;2.70;1.65;;;;;;;;;;5113263;28;20534;-49
2023/03/11 12:14:11;;;;;;;1.00;0.80;;;;;;;;;;5113587;28;20080;-49
2023/03/11 12:16:41;;;;;;;1.05;0.63;;;;;;;;;;5113132;28;20047;-49
2023/03/11 12:19:10;;;;;;;2.38;1.45;;;;;;;;;;5113169;28;20059;-49
2023/03/11 12:21:47;;;;;;;3.13;0.95;;;;;;;;;;5113136;28;20492;-49
2023/03/11 12:24:22;;;;;;;1.20;0.82;;;;;;;;;;5113051;28;20023;-49
2023/03/11 12:26:49;;;;;;;1.08;0.77;;;;;;;;;;5113008;28;20032;-49
2023/03/11 12:29:34;;;;;;;1.17;0.95;;;;;;;;;;5112816;28;20114;-49
2023/03/11 12:32:00;;;;;;;1.70;0.90;;;;;;;;;;5113154;28;20023;-49
2023/03/11 12:34:27;;;;;;;1.95;0.75;;;;;;;;;;5113275;28;20020;-50
2023/03/11 12:36:56;;;;;;;0.68;0.68;;;;;;;;;;5113099;28;20039;-49
2023/03/11 12:39:23;;;;;;;0.98;0.55;;;;;;;;;;5112841;28;20028;-49
2023/03/11 12:42:09;;;;;;;2.80;0.77;;;;;;;;;;5113038;28;20027;-49
2023/03/11 12:44:34;;;;;;;4.70;0.95;;;;;;;;;;5112599;28;20023;-49
2023/03/11 12:47:20;;;;;;;0.95;0.75;;;;;;;;;;5112525;28;20019;-49
2023/03/11 12:49:48;;;;;;;1.20;1.08;;;;;;;;;;5112293;28;20075;-49
2023/03/11 12:52:13;;;;;;;4.22;0.88;;;;;;;;;;5112434;28;20049;-49
2023/03/11 12:54:39;;;;;;;1.35;0.75;;;;;;;;;;5112442;28;20462;-49
2023/03/11 12:57:04;;;;;;;2.40;0.80;;;;;;;;;;5112459;28;20098;-49
2023/03/11 12:59:32;;;;;;;0.75;0.65;;;;;;;;;;5112789;28;20111;-49
2023/03/11 13:02:11;;;;;;;0.88;0.85;;;;;;;;;;5112321;28;20055;-49
2023/03/11 13:04:40;;;;;;;1.02;0.80;;;;;;;;;;5111243;28;20080;-49
2023/03/11 13:07:08;;;;;;;0.60;0.60;;;;;;;;;;5111776;28;20417;-49
2023/03/11 13:09:34;;;;;;;1.85;0.80;;;;;;;;;;5112490;28;20019;-49
2023/03/11 13:11:59;;;;;;;4.68;0.93;;;;;;;;;;5112191;28;20027;-49
2023/03/11 13:14:32;;;;;;;1.98;0.80;;;;;;;;;;5112150;28;20031;-49
2023/03/11 13:17:16;;;;;;;0.65;0.60;;;;;;;;;;5112123;28;20093;-49
2023/03/11 13:19:52;;;;;;;0.85;0.70;;;;;;;;;;5112406;28;20031;-49
2023/03/11 13:22:36;;;;;;;0.75;0.60;;;;;;;;;;5112035;28;20035;-49
2023/03/11 13:25:17;;;;;;;2.05;1.40;;;;;;;;;;5111969;28;20027;-49
2023/03/11 13:27:46;;;;;;;0.57;0.50;;;;;;;;;;5112018;28;20054;-49
2023/03/11 13:30:11;;;;;;;2.20;1.70;;;;;;;;;;5110464;28;20051;-49
2023/03/11 13:32:49;;;;;;;3.60;0.95;;;;;;;;;;5111969;28;20024;-49
2023/03/11 13:35:33;;;;;;;1.40;0.70;;;;;;;;;;5111981;28;20103;-49
2023/03/11 13:38:17;;;;;;;0.50;0.50;;;;;;;;;;5111823;28;20020;-49
2023/03/11 13:40:44;;;;;;;2.83;1.27;;;;;;;;;;5112204;28;20027;-49
2023/03/11 13:43:21;;;;;;;1.17;0.65;;;;;;;;;;5111750;28;20022;-49
2023/03/11 13:45:52;;;;;;;0.63;0.63;;;;;;;;;;5111824;28;20097;-49
2023/03/11 13:48:20;;;;;;;0.93;0.90;;;;;;;;;;5111986;28;20417;-49
2023/03/11 13:50:49;;;;;;;0.70;0.60;;;;;;;;;;5112129;28;20072;-49
2023/03/11 13:53:33;;;;;;;1.10;0.88;;;;;;;;;;5111519;28;20042;-49
2023/03/11 13:55:59;;;;;;;0.80;0.65;;;;;;;;;;5111865;28;20394;-49
2023/03/11 13:58:25;;;;;;;1.50;0.95;;;;;;;;;;5110391;28;20038;-49
2023/03/11 14:00:53;;;;;;;0.95;0.80;;;;;;;;;;5111724;28;20051;-49
2023/03/11 14:03:21;;;;;;;3.78;1.20;;;;;;;;;;5110175;28;20015;-49
2023/03/11 14:05:47;;;;;;;2.10;1.13;;;;;;;;;;5111986;28;20031;-49
2023/03/11 14:08:16;;;;;;;1.25;1.15;;;;;;;;;;5111598;28;20173;-49
